• Join FlightAware (Why Join?)
  • Login
  • US Flag 
04:53PM EDT


 

Airport Tracker/Info


-or-


 

Live Flight TrackerFlight Track Log ✈ N7219U ✈ 27-Aug-2013 ✈ KGHM - KGMU

Flight Track Log - Related Links

Times and Time Zones

All times are in EDT time to prevent confusion due to time zone crossing. See the N7219U flight status page for this flight to view local times or setup timezone preferences in your user account.

Time Position Orientation Groundspeed Altitude Reporting Facility
EDT Latitude Longitude Course Direction KTS MPH feet Rate Location/Type
06:52PM 35.8383 -87.3431 110° East 145 167 3,200  Level Memphis Center
06:53PM 35.8292 -87.3050 107° East 120 138 3,900 660 Climbing Memphis Center
06:54PM 35.8197 -87.2694 108° East 112 129 4,600 720 Climbing Memphis Center
06:55PM 35.8128 -87.2339 104° East 112 129 5,400 660 Climbing Memphis Center
06:56PM 35.8009 -87.2328 109° East  Level Estimated
06:56PM 35.8056 -87.1958 103° East 112 129 6,000  Level Memphis Center
06:57PM 35.7888 -87.1919 110° East  Level FlightAware Approximate
06:57PM 35.8003 -87.1578 100° East 112 129 6,700  Level Memphis Center
06:58PM 35.7911 -87.1197 107° East 107 123 7,300 540 Climbing Memphis Center
06:59PM 35.7839 -87.0842 104° East 107 123 7,800 540 Climbing Memphis Center
07:00PM 35.7806 -87.0433 96° East 107 123 8,400 480 Climbing Memphis Center
07:01PM 35.7736 -87.0103 105° East 107 123 8,800 360 Climbing Memphis Center
07:02PM 35.7661 -86.9722 104° East 107 123 9,200 360 Climbing Memphis Center
07:03PM 35.7589 -86.9317 102° East 117 135 9,600 360 Climbing Memphis Center
07:04PM 35.7517 -86.8961 104° East 127 146 10,000 360 Climbing Memphis Center
07:05PM 35.7464 -86.8556 99° East 122 140 10,400 360 Climbing Memphis Center
07:06PM 35.7389 -86.8200 105° East 117 135 10,800 300 Climbing Memphis Center
07:07PM 35.7336 -86.7792 99° East 112 129 11,000 60 Climbing Memphis Center
07:08PM 35.7239 -86.7286 103° East 126 145 11,000  Level Memphis Center
07:09PM 35.7119 -86.6753 105° East 143 165 11,000  Level Memphis Center
07:10PM 35.7019 -86.6247 104° East 150 173 11,000  Level Memphis Center
07:11PM 35.6922 -86.5739 103° East 150 173 11,000  Level Memphis Center
07:12PM 35.6822 -86.5208 103° East 150 173 11,000  Level Memphis Center
07:13PM 35.6722 -86.4675 103° East 150 173 11,000  Level Memphis Center
07:14PM 35.6644 -86.4169 101° East 150 173 11,000  Level Memphis Center
07:15PM 35.6564 -86.3661 101° East 150 173 11,000  Level Memphis Center
07:16PM 35.6464 -86.3103 102° East 155 178 11,000  Level Memphis Center
07:17PM 35.6364 -86.2597 104° East 155 178 11,000  Level Memphis Center
07:18PM 35.6281 -86.2039 100° East 155 178 11,000  Level Memphis Center
07:19PM 35.6161 -86.1561 107° East 160 184 11,000  Level Memphis Center
07:20PM 35.6081 -86.1028 101° East 160 184 11,000  Level Memphis Center
07:21PM 35.5981 -86.0522 104° East 160 184 11,000  Level Memphis Center
07:22PM 35.5878 -85.9992 103° East 160 184 11,000  Level Memphis Center
07:23PM 35.5778 -85.9514 104° East 155 178 11,000  Level Memphis Center
07:24PM 35.5697 -85.8981 101° East 155 178 11,000  Level Memphis Center
07:25PM 35.5592 -85.8425 103° East 155 178 11,000  Level Memphis Center
07:26PM 35.5492 -85.7919 104° East 155 178 11,000  Level Memphis Center
07:27PM 35.5408 -85.7414 101° East 155 178 11,000  Level Memphis Center
07:28PM 35.5306 -85.6886 103° East 155 178 11,000  Level Memphis Center
07:29PM 35.5203 -85.6381 104° East 155 178 11,000  Level Memphis Center
07:30PM 35.5100 -85.5875 104° East 155 178 11,000  Level Memphis Center
07:31PM 35.4997 -85.5372 104° East 160 184 11,000  Level Memphis Center
07:32PM 35.4894 -85.4869 104° East 160 184 11,000  Level Memphis Center
07:33PM 35.4750 -85.4006 102° East 156 180 11,100  Climbing Atlanta Center
07:34PM 35.4650 -85.3519 104° East 151 174 11,100 -60 Level Atlanta Center
07:35PM 35.4553 -85.3008 103° East 146 168 11,000 -60 Descending Atlanta Center
07:36PM 35.4453 -85.2497 103° East 146 168 11,000  Level Atlanta Center
07:37PM 35.4353 -85.1986 103° East 146 168 11,000  Level Atlanta Center
07:38PM 35.4253 -85.1475 103° East 146 168 11,000  Level Atlanta Center
07:39PM 35.4175 -85.0964 101° East 146 168 11,000  Level Atlanta Center
07:40PM 35.4053 -85.0478 107° East 146 168 11,000  Level Atlanta Center
07:41PM 35.3953 -84.9967 103° East 146 168 11,000  Level Atlanta Center
07:42PM 35.3875 -84.9456 101° East 146 168 11,000  Level Atlanta Center
07:43PM 35.3772 -84.8947 104° East 146 168 11,000  Level Atlanta Center
07:44PM 35.3672 -84.8436 103° East 146 168 11,000  Level Atlanta Center
07:45PM 35.3572 -84.7925 103° East 146 168 11,000  Level Atlanta Center
07:46PM 35.3469 -84.7414 104° East 146 168 11,000  Level Atlanta Center
07:47PM 35.3369 -84.6931 104° East 146 168 11,000  Level Atlanta Center
07:48PM 35.3267 -84.6419 104° East 146 168 11,000  Level Atlanta Center
07:49PM 35.3164 -84.5911 104° East 146 168 11,000  Level Atlanta Center
07:50PM 35.3064 -84.5400 103° East 146 168 11,000  Level Atlanta Center
07:51PM 35.2939 -84.4917 108° East 146 168 11,000  Level Atlanta Center
07:52PM 35.2858 -84.4408 101° East 146 168 11,000  Level Atlanta Center
07:53PM 35.2733 -84.3897 107° East 151 174 11,000  Level Atlanta Center
07:54PM 35.2631 -84.3389 104° East 151 174 11,000  Level Atlanta Center
07:55PM 35.2528 -84.2856 103° East 151 174 11,000  Level Atlanta Center
07:56PM 35.2444 -84.2372 102° East 151 174 11,000  Level Atlanta Center
07:57PM 35.2342 -84.1889 105° East 151 174 11,000  Level Atlanta Center
07:58PM 35.2239 -84.1406 105° East 151 174 11,000  Level Atlanta Center
07:59PM 35.2156 -84.0894 101° East 151 174 11,000  Level Atlanta Center
08:00PM 35.2050 -84.0389 104° East 151 174 11,000  Level Atlanta Center
08:01PM 35.1925 -83.9881 107° East 151 174 11,000  Level Atlanta Center
08:02PM 35.1819 -83.9372 104° East 151 174 11,000  Level Atlanta Center
08:03PM 35.1717 -83.8864 104° East 151 174 11,000  Level Atlanta Center
08:04PM 35.1611 -83.8331 104° East 151 174 11,000  Level Atlanta Center
08:05PM 35.1506 -83.7822 104° East 151 174 11,000  Level Atlanta Center
08:06PM 35.1400 -83.7314 104° East 151 174 11,000  Level Atlanta Center
08:07PM 35.1314 -83.6781 101° East 151 174 11,000  Level Atlanta Center
08:08PM 35.1189 -83.6300 108° East 151 174 11,000  Level Atlanta Center
08:09PM 35.1103 -83.5792 102° East 151 174 11,000  Level Atlanta Center
08:10PM 35.0975 -83.5286 107° East 157 181 11,000  Level Atlanta Center
08:11PM 35.0869 -83.4803 105° East 152 175 11,000  Level Atlanta Center
08:12PM 35.0761 -83.4272 104° East 152 175 11,000  Level Atlanta Center
08:13PM 35.0656 -83.3817 106° East 152 175 11,000  Level Atlanta Center
08:14PM 35.0547 -83.3308 105° East 147 169 11,000  Level Atlanta Center
08:15PM 35.0461 -83.2778 101° East 147 169 11,000  Level Atlanta Center
08:16PM 35.0333 -83.2269 107° East 152 175 11,100  Climbing Atlanta Center
08:17PM 35.0225 -83.1789 105° East 147 169 11,100  Level Atlanta Center
08:18PM 35.0139 -83.1333 103° East 147 169 11,100  Level Atlanta Center
08:19PM 35.0031 -83.0803 104° East 153 176 11,100  Level Atlanta Center
08:20PM 34.9922 -83.0322 105° East 153 176 11,100  Level Atlanta Center
08:21PM 34.9792 -82.9842 108° East 142 163 11,100 -540 Level Atlanta Center
08:22PM 34.9725 -82.9183 97° East 161 185 10,100 -900 Descending Atlanta Center
08:23PM 34.9844 -82.8600 76° East 171 197 9,400 -600 Descending Atlanta Center
08:24PM 34.9964 -82.8039 75° East 177 204 8,900 -600 Descending Atlanta Center
08:25PM 34.9958 -82.7481 91° East 177 204 8,300 -600 Descending Atlanta Center
08:26PM 34.9972 -82.6900 88° East 171 197 7,700 -660 Descending Atlanta Center
08:27PM 35.0008 -82.6342 85° East 171 197 7,000 -720 Descending Atlanta Center
08:29PM 34.9713 -82.5839 126° Southeast  Level FlightAware Approximate
08:36PM 34.8479 -82.3500 105° East  Level Estimated
08:37PM 34.8479 -82.3500 105° East  Level Estimated
08:38PM 34.8479 -82.3500 105° East  Level Estimated
08:39PM 34.8479 -82.3500 105° East  Level Estimated
08:40PM 34.8479 -82.3500 105° East  Level Estimated
08:41PM 34.8479 -82.3500 105° East  Level Estimated
08:42PM 34.8479 -82.3500 105° East  Level Estimated
08:43PM 34.8479 -82.3500 105° East  Level Estimated
08:44PM 34.8479 -82.3500 105° East  Level Estimated